Time;durP1;ratioP1;P1;durP2;ratioP2;P2;SDS_P1;SDS_P2;PMS_P1;PMS_P2;Temp;Humidity;BMP_temperature;BMP_pressure;BME280_temperature;BME280_humidity;BME280_pressure;Samples;Min_cycle;Max_cycle;Signal;HPM_P1;HPM_P2
2020/12/17 00:01:29;;;;;;;31.20;21.70;;;;;;;14.06;40.55;95214.25;5096913;28;20489;-42
2020/12/17 00:03:56;;;;;;;28.98;20.77;;;;;;;14.23;40.32;95218.19;5096499;28;20438;-42
2020/12/17 00:06:23;;;;;;;29.08;20.92;;;;;;;14.14;40.13;95220.69;5096318;28;20063;-42
2020/12/17 00:08:50;;;;;;;32.63;21.85;;;;;;;14.05;40.48;95217.94;5096569;28;20051;-42
2020/12/17 00:11:18;;;;;;;31.02;21.65;;;;;;;14.28;40.06;95220.72;5096642;28;20354;-42
2020/12/17 00:13:45;;;;;;;31.17;21.05;;;;;;;14.19;40.23;95226.66;5096210;28;20047;-42
2020/12/17 00:16:12;;;;;;;36.30;22.30;;;;;;;14.13;40.44;95225.19;5096603;28;20362;-42
2020/12/17 00:18:39;;;;;;;33.65;22.55;;;;;;;14.21;40.34;95223.72;5096689;28;20036;-42
2020/12/17 00:21:06;;;;;;;33.05;22.92;;;;;;;13.84;40.85;95228.00;5096412;28;20056;-42
2020/12/17 00:23:33;;;;;;;35.30;22.45;;;;;;;13.91;41.15;95227.63;5095366;28;20063;-42
2020/12/17 00:26:00;;;;;;;32.55;22.65;;;;;;;14.03;41.06;95232.44;5095849;28;20054;-41
2020/12/17 00:28:27;;;;;;;34.35;21.63;;;;;;;14.11;40.90;95231.78;5095752;28;20043;-42
2020/12/17 00:30:54;;;;;;;32.55;22.33;;;;;;;14.02;41.13;95231.66;5096208;28;20386;-42
2020/12/17 00:33:22;;;;;;;29.20;19.90;;;;;;;14.08;41.27;95227.91;5095776;28;20051;-42
2020/12/17 00:35:49;;;;;;;31.52;20.70;;;;;;;13.96;41.35;95229.38;5095924;28;20382;-42
2020/12/17 00:38:16;;;;;;;30.63;20.60;;;;;;;14.01;41.17;95230.09;5095462;28;20048;-42
2020/12/17 00:40:43;;;;;;;34.35;22.17;;;;;;;13.95;41.42;95231.22;5095900;28;20044;-42
2020/12/17 00:43:10;;;;;;;31.00;21.23;;;;;;;14.16;41.00;95219.34;5095591;28;20054;-41
2020/12/17 00:45:37;;;;;;;29.63;20.70;;;;;;;14.10;41.08;95220.50;5095625;28;20052;-41
2020/12/17 00:48:04;;;;;;;31.08;20.08;;;;;;;14.00;41.30;95231.16;5095698;28;20389;-42
2020/12/17 00:50:31;;;;;;;31.17;21.08;;;;;;;14.03;41.03;95233.22;5095815;28;20047;-41
2020/12/17 00:52:58;;;;;;;30.25;21.25;;;;;;;13.96;41.55;95234.66;5095643;28;20062;-42
2020/12/17 00:55:25;;;;;;;33.17;21.20;;;;;;;13.78;41.90;95229.09;5095878;28;20055;-42
2020/12/17 00:57:52;;;;;;;33.22;22.77;;;;;;;13.92;41.43;95229.19;5095410;28;20549;-42
2020/12/17 01:00:19;;;;;;;35.10;21.45;;;;;;;14.03;41.30;95233.22;5095592;28;20036;-42
2020/12/17 01:02:46;;;;;;;32.08;21.08;;;;;;;14.11;41.17;95237.06;5095085;28;20050;-42
2020/12/17 01:05:13;;;;;;;34.58;21.60;;;;;;;14.19;41.11;95228.50;5095091;28;20047;-42
2020/12/17 01:07:41;;;;;;;30.27;20.60;;;;;;;13.90;41.31;95228.69;5094707;28;20055;-42
2020/12/17 01:10:08;;;;;;;30.23;20.70;;;;;;;13.95;41.43;95227.81;5095558;28;20079;-42
2020/12/17 01:12:35;;;;;;;31.38;20.75;;;;;;;13.97;41.62;95225.69;5095116;28;20044;-42
2020/12/17 01:15:02;;;;;;;33.17;22.50;;;;;;;13.89;41.57;95227.91;5094699;28;20044;-42
2020/12/17 01:17:29;;;;;;;30.48;20.13;;;;;;;14.06;41.33;95224.78;5095154;28;20484;-41
2020/12/17 01:19:56;;;;;;;31.08;20.50;;;;;;;13.99;41.58;95226.19;5095537;28;20047;-42
2020/12/17 01:22:23;;;;;;;30.85;21.73;;;;;;;14.03;41.49;95227.94;5095514;28;20044;-42
2020/12/17 01:24:50;;;;;;;30.48;20.73;;;;;;;13.96;41.52;95218.88;5095248;28;20051;-42
2020/12/17 01:27:17;;;;;;;33.78;21.60;;;;;;;14.01;41.46;95224.03;5095355;28;20059;-41
2020/12/17 01:29:44;;;;;;;34.15;22.63;;;;;;;13.74;42.13;95222.84;5095098;28;20052;-42
2020/12/17 01:32:11;;;;;;;32.97;22.20;;;;;;;13.94;41.72;95227.03;5095486;28;20051;-41
2020/12/17 01:34:38;;;;;;;32.50;22.17;;;;;;;14.24;41.09;95230.25;5095088;28;20044;-41
2020/12/17 01:37:06;;;;;;;33.60;22.17;;;;;;;14.03;41.88;95220.06;5095174;28;20048;-41
2020/12/17 01:39:33;;;;;;;34.45;22.48;;;;;;;13.95;41.73;95218.09;5095129;28;20052;-42
2020/12/17 01:42:00;;;;;;;34.70;23.33;;;;;;;13.92;41.72;95217.88;5095179;28;20070;-43
2020/12/17 01:44:27;;;;;;;35.50;22.63;;;;;;;14.10;41.35;95215.25;5095653;28;20047;-42
2020/12/17 01:46:54;;;;;;;33.42;22.83;;;;;;;13.98;41.58;95207.00;5095141;28;20048;-42
2020/12/17 01:49:26;;;;;;;38.53;23.42;;;;;;;13.91;41.91;95206.59;5095068;28;20439;-42
2020/12/17 01:51:53;;;;;;;40.15;26.00;;;;;;;13.76;42.39;95209.44;5095160;28;20063;-42
2020/12/17 01:54:21;;;;;;;42.67;26.70;;;;;;;13.79;42.34;95214.13;5095131;28;20056;-42
2020/12/17 01:57:00;;;;;;;40.50;26.50;;;;;;;13.74;42.58;95206.31;5095075;28;20367;-42
2020/12/17 01:59:28;;;;;;;40.20;25.15;;;;;;;13.64;42.78;95211.72;5094898;28;20055;-42
2020/12/17 02:01:56;;;;;;;37.83;23.95;;;;;;;13.78;42.68;95197.56;5077392;28;20059;-42
2020/12/17 02:04:24;;;;;;;38.55;23.73;;;;;;;13.67;42.59;95208.53;5094983;28;20040;-42
2020/12/17 02:06:52;;;;;;;40.13;24.67;;;;;;;13.72;42.63;95211.06;5094535;28;20044;-42
2020/12/17 02:09:19;;;;;;;37.78;23.15;;;;;;;13.73;42.45;95207.38;5094743;28;20059;-42
2020/12/17 02:11:57;;;;;;;40.67;24.23;;;;;;;13.67;42.43;95201.41;5095029;28;20048;-42
2020/12/17 02:14:25;;;;;;;36.72;22.67;;;;;;;13.66;42.68;95194.59;5095031;28;20055;-42
2020/12/17 02:16:53;;;;;;;35.50;21.50;;;;;;;13.67;42.69;95203.28;5094901;28;20451;-42
2020/12/17 02:19:21;;;;;;;33.47;22.00;;;;;;;13.63;42.56;95199.66;5094724;28;20442;-42
2020/12/17 02:21:49;;;;;;;33.25;21.40;;;;;;;13.71;42.42;95199.78;5093901;28;20066;-42
2020/12/17 02:24:23;;;;;;;37.28;22.67;;;;;;;13.71;42.55;95206.88;5094747;28;20052;-42
2020/12/17 02:26:51;;;;;;;32.03;20.25;;;;;;;13.73;42.35;95194.25;5094818;28;20055;-42
2020/12/17 02:29:18;;;;;;;32.15;20.35;;;;;;;13.87;42.12;95197.72;5094489;28;20044;-42
2020/12/17 02:31:46;;;;;;;32.05;20.65;;;;;;;13.77;42.15;95190.75;5094979;28;20050;-41
2020/12/17 02:34:13;;;;;;;34.42;21.48;;;;;;;13.82;42.24;95197.81;5094051;28;20040;-42
2020/12/17 02:36:41;;;;;;;36.88;23.30;;;;;;;14.01;41.77;95195.91;5093522;28;20043;-42
2020/12/17 02:39:08;;;;;;;39.00;22.92;;;;;;;13.90;42.18;95191.88;5094507;28;20055;-42
2020/12/17 02:41:35;;;;;;;38.13;22.23;;;;;;;13.95;42.01;95197.06;5094731;28;20051;-42
2020/12/17 02:44:03;;;;;;;38.20;23.38;;;;;;;13.91;42.00;95190.03;5094660;28;20362;-42
2020/12/17 02:46:30;;;;;;;39.05;24.00;;;;;;;13.88;41.84;95192.19;5096605;28;20475;-42
2020/12/17 02:48:57;;;;;;;43.92;25.98;;;;;;;13.97;41.87;95194.94;5097831;28;20054;-42
2020/12/17 02:51:24;;;;;;;44.22;25.60;;;;;;;13.96;42.20;95193.38;5098466;28;20048;-42
2020/12/17 02:53:51;;;;;;;46.70;27.70;;;;;;;13.93;42.31;95199.19;5098151;28;20055;-42
2020/12/17 02:56:18;;;;;;;42.58;26.10;;;;;;;14.00;42.15;95202.22;5098225;28;20058;-42
2020/12/17 02:58:45;;;;;;;43.83;26.65;;;;;;;13.92;42.04;95196.84;5097688;28;20059;-42
2020/12/17 03:01:13;;;;;;;44.20;25.55;;;;;;;14.06;42.20;95198.47;5098087;28;20063;-42
2020/12/17 03:03:40;;;;;;;42.50;25.65;;;;;;;13.96;42.13;95198.63;5096921;28;20055;-42
2020/12/17 03:06:07;;;;;;;43.10;26.73;;;;;;;14.08;41.74;95203.44;5097738;28;20059;-42
2020/12/17 03:08:34;;;;;;;51.05;28.88;;;;;;;13.88;42.21;95201.91;5097869;28;20048;-42
2020/12/17 03:11:02;;;;;;;47.63;28.15;;;;;;;13.74;42.63;95201.06;5097747;28;20048;-42
2020/12/17 03:13:29;;;;;;;49.25;28.83;;;;;;;13.84;42.18;95193.81;5097840;28;20048;-42
2020/12/17 03:15:56;;;;;;;46.35;26.17;;;;;;;13.73;42.70;95196.88;5097796;28;20048;-42
2020/12/17 03:18:23;;;;;;;42.03;23.88;;;;;;;13.81;42.38;95197.03;5097404;28;20040;-41
2020/12/17 03:20:50;;;;;;;42.05;25.38;;;;;;;13.85;42.38;95197.22;5097623;28;20044;-42
2020/12/17 03:23:18;;;;;;;44.20;25.33;;;;;;;13.72;42.42;95197.94;5097492;28;20055;-43
2020/12/17 03:25:45;;;;;;;46.30;25.83;;;;;;;13.83;42.53;95210.66;5097783;28;20055;-42
2020/12/17 03:28:12;;;;;;;46.08;25.88;;;;;;;13.88;42.41;95212.41;5097344;28;20051;-42
2020/12/17 03:30:39;;;;;;;40.28;23.42;;;;;;;13.85;42.53;95207.75;5097430;28;20358;-41
2020/12/17 03:33:06;;;;;;;43.03;25.27;;;;;;;13.77;42.72;95208.38;5097561;28;20048;-42
2020/12/17 03:35:33;;;;;;;43.83;25.05;;;;;;;13.91;42.58;95214.47;5097563;28;20048;-42
2020/12/17 03:38:00;;;;;;;42.83;25.20;;;;;;;13.86;42.63;95214.56;5096756;28;20048;-42
2020/12/17 03:40:28;;;;;;;47.38;26.40;;;;;;;14.06;42.00;95230.03;5097417;28;20051;-47
2020/12/17 03:42:55;;;;;;;44.15;25.58;;;;;;;14.01;42.17;95224.81;5097053;28;20047;-42
2020/12/17 03:45:23;;;;;;;44.47;24.30;;;;;;;13.80;42.59;95220.97;5097131;28;20047;-42
2020/12/17 03:47:50;;;;;;;43.25;23.88;;;;;;;13.87;42.54;95226.63;5097083;28;20491;-54
2020/12/17 03:50:17;;;;;;;42.55;25.02;;;;;;;13.83;42.80;95230.91;5096687;28;20058;-43
2020/12/17 03:52:44;;;;;;;40.53;24.40;;;;;;;13.81;42.73;95222.53;5096828;28;20375;-55
2020/12/17 03:55:12;;;;;;;39.58;23.27;;;;;;;13.79;42.85;95219.38;5097044;28;20055;-55
2020/12/17 03:57:39;;;;;;;40.08;24.55;;;;;;;13.76;42.82;95222.56;5096880;28;20328;-45
2020/12/17 04:00:06;;;;;;;35.78;22.55;;;;;;;13.97;42.53;95223.84;5096604;28;20435;-42
2020/12/17 04:02:34;;;;;;;39.05;23.38;;;;;;;13.82;42.65;95219.59;5096711;28;20052;-42
2020/12/17 04:05:01;;;;;;;40.15;23.13;;;;;;;13.76;42.67;95214.69;5096744;28;20044;-42
2020/12/17 04:07:29;;;;;;;40.03;23.58;;;;;;;13.95;42.49;95212.84;5096369;28;20051;-46
2020/12/17 04:09:56;;;;;;;39.75;23.92;;;;;;;13.73;43.01;95207.38;5096442;28;20358;-42
2020/12/17 04:12:24;;;;;;;41.38;23.45;;;;;;;13.68;42.87;95210.09;5096824;28;20048;-42
2020/12/17 04:14:51;;;;;;;45.17;26.58;;;;;;;13.64;43.07;95214.34;5096669;28;20054;-42
2020/12/17 04:17:36;;;;;;;41.30;25.50;;;;;;;13.67;42.94;95211.16;5096801;28;20343;-42
2020/12/17 04:20:22;;;;;;;47.65;25.85;;;;;;;13.75;42.81;95208.66;5096267;28;20047;-42
2020/12/17 04:22:49;;;;;;;41.30;24.27;;;;;;;13.73;42.93;95215.25;5096446;28;20378;-42
2020/12/17 04:25:16;;;;;;;40.58;24.48;;;;;;;13.78;42.97;95215.19;5096465;28;20394;-42
2020/12/17 04:27:43;;;;;;;43.28;26.02;;;;;;;14.02;42.58;95215.09;5096279;28;20447;-42
2020/12/17 04:30:10;;;;;;;43.70;23.52;;;;;;;13.91;42.48;95208.44;5095857;28;20375;-42
2020/12/17 04:32:37;;;;;;;39.05;24.10;;;;;;;13.88;42.58;95210.56;5096097;28;20058;-42
2020/12/17 04:35:05;;;;;;;39.67;22.92;;;;;;;13.74;42.75;95211.56;5096020;28;20052;-42
2020/12/17 04:37:32;;;;;;;40.72;23.45;;;;;;;13.83;42.67;95213.28;5095821;28;20366;-42
2020/12/17 04:39:59;;;;;;;40.85;23.25;;;;;;;13.91;42.43;95209.22;5095802;28;20320;-47
2020/12/17 04:42:26;;;;;;;37.42;22.08;;;;;;;13.99;42.16;95213.03;5095912;28;20055;-50
2020/12/17 04:44:54;;;;;;;38.55;22.65;;;;;;;14.04;42.21;95211.09;5077133;28;20056;-54
2020/12/17 04:47:21;;;;;;;37.33;21.50;;;;;;;13.85;42.43;95215.63;5095611;28;20394;-53
2020/12/17 04:49:51;;;;;;;34.03;19.45;;;;;;;13.81;42.51;95212.00;5095209;28;20367;-45
2020/12/17 04:52:22;;;;;;;34.88;20.00;;;;;;;14.03;41.87;95209.53;5095157;28;20044;-55
2020/12/17 04:54:51;;;;;;;34.13;19.73;;;;;;;13.98;42.21;95222.00;5077970;28;20451;-42
2020/12/17 04:57:18;;;;;;;33.45;19.67;;;;;;;14.00;42.01;95220.63;5078003;28;20381;-42
2020/12/17 04:59:48;;;;;;;34.63;20.25;;;;;;;13.95;41.95;95218.09;5077897;28;20040;-42
2020/12/17 05:02:17;;;;;;;32.78;18.65;;;;;;;13.85;42.30;95216.41;5095519;28;20079;-41
2020/12/17 05:04:45;;;;;;;32.72;19.63;;;;;;;13.74;42.46;95217.59;5095623;28;20056;-42
2020/12/17 05:07:14;;;;;;;29.70;18.17;;;;;;;13.82;42.47;95216.19;5095247;28;20366;-42
2020/12/17 05:09:43;;;;;;;27.45;18.10;;;;;;;13.67;42.77;95211.16;5095003;28;20371;-42
2020/12/17 05:12:11;;;;;;;31.27;18.67;;;;;;;13.69;42.30;95211.66;5094319;28;20044;-42
2020/12/17 05:14:38;;;;;;;28.13;17.45;;;;;;;13.89;42.19;95221.88;5095371;28;20044;-43
2020/12/17 05:17:06;;;;;;;32.35;18.38;;;;;;;13.77;42.31;95213.63;5095235;28;20363;-44
2020/12/17 05:19:33;;;;;;;29.50;19.15;;;;;;;14.03;41.74;95221.91;5094722;28;20051;-41
2020/12/17 05:22:02;;;;;;;32.58;20.63;;;;;;;13.83;42.40;95225.66;5094868;28;20063;-41
2020/12/17 05:24:29;;;;;;;33.15;18.63;;;;;;;13.79;42.56;95224.63;5092649;28;20059;-42
2020/12/17 05:26:58;;;;;;;31.63;19.70;;;;;;;13.85;42.37;95218.25;5094587;28;20052;-41
2020/12/17 05:29:26;;;;;;;32.65;20.00;;;;;;;13.73;42.81;95220.53;5095141;28;20056;-42
2020/12/17 05:31:53;;;;;;;32.03;19.23;;;;;;;13.84;42.56;95222.72;5094656;28;20138;-42
2020/12/17 05:34:21;;;;;;;31.10;18.83;;;;;;;13.95;42.27;95215.47;5094931;28;20055;-42
2020/12/17 05:36:49;;;;;;;33.83;20.13;;;;;;;14.05;42.13;95228.47;5091984;28;20074;-41
2020/12/17 05:39:21;;;;;;;32.92;20.20;;;;;;;13.92;42.25;95234.44;5085030;28;20362;-42
2020/12/17 05:41:51;;;;;;;31.20;20.00;;;;;;;14.08;42.05;95230.53;5094911;28;20048;-42
2020/12/17 05:44:20;;;;;;;33.15;20.02;;;;;;;14.06;42.25;95229.25;5095123;28;20059;-41
2020/12/17 05:46:50;;;;;;;36.05;21.80;;;;;;;14.15;42.29;95238.03;5093300;28;20067;-42
2020/12/17 05:49:28;;;;;;;35.50;20.92;;;;;;;14.37;41.42;95240.06;5094644;28;20048;-41
2020/12/17 05:52:18;;;;;;;39.95;22.80;;;;;;;14.30;41.78;95239.63;5078726;28;20051;-43
2020/12/17 05:54:54;;;;;;;38.83;23.00;;;;;;;14.50;41.32;95236.69;5095021;28;20057;-42
2020/12/17 05:57:22;;;;;;;36.95;21.85;;;;;;;14.57;41.18;95245.00;5095381;28;20048;-44
2020/12/17 05:59:57;;;;;;;39.22;21.77;;;;;;;14.58;40.89;95246.56;5094784;28;20055;-43
2020/12/17 06:02:28;;;;;;;40.45;21.52;;;;;;;14.44;41.43;95251.00;5077997;28;20083;-42
2020/12/17 06:05:09;;;;;;;34.97;20.67;;;;;;;14.39;41.62;95251.06;5095060;28;20057;-42
2020/12/17 06:07:48;;;;;;;40.28;21.52;;;;;;;14.36;41.47;95249.81;5094565;28;20040;-42
2020/12/17 06:10:29;;;;;;;33.50;20.08;;;;;;;14.39;41.49;95256.34;5095014;28;20048;-42
2020/12/17 06:13:01;;;;;;;33.70;20.23;;;;;;;14.53;41.22;95257.16;5094616;28;20059;-42
2020/12/17 06:15:32;;;;;;;33.75;18.90;;;;;;;14.90;40.49;95247.59;5094957;28;20055;-41
2020/12/17 06:18:01;;;;;;;34.03;19.65;;;;;;;15.38;39.31;95250.63;5094890;28;20441;-42
2020/12/17 06:20:31;;;;;;;33.88;20.08;;;;;;;15.68;38.70;95251.88;5093547;28;20354;-41
2020/12/17 06:23:00;;;;;;;33.92;19.77;;;;;;;15.67;38.56;95248.44;5096214;28;20067;-41
2020/12/17 06:25:32;;;;;;;37.83;21.95;;;;;;;15.67;38.67;95251.09;5098565;28;20059;-42
2020/12/17 06:27:59;;;;;;;31.92;19.70;;;;;;;15.65;38.64;95252.47;5079773;28;20054;-41
2020/12/17 06:30:31;;;;;;;36.67;21.17;;;;;;;15.77;38.21;95257.22;5098595;28;20048;-53
2020/12/17 06:33:07;;;;;;;36.35;20.42;;;;;;;15.35;39.22;95249.34;5098197;28;20044;-52
2020/12/17 06:35:41;;;;;;;38.60;22.63;;;;;;;15.24;39.55;95258.50;5081032;28;20346;-42
2020/12/17 06:38:10;;;;;;;41.13;22.75;;;;;;;15.36;38.96;95256.19;5098624;28;20052;-42
2020/12/17 06:40:38;;;;;;;39.50;23.88;;;;;;;15.25;39.10;95254.81;5080686;28;20051;-41
2020/12/17 06:43:39;;;;;;;43.40;23.90;;;;;;;15.56;38.57;95262.88;5098216;28;20044;-42
2020/12/17 06:46:33;;;;;;;42.55;23.67;;;;;;;15.91;37.90;95257.97;5098738;28;20050;-41
2020/12/17 06:49:11;;;;;;;34.45;19.92;;;;;;;16.32;37.14;95258.56;5098503;28;20074;-42
2020/12/17 06:51:40;;;;;;;29.23;19.25;;;;;;;15.81;38.23;95251.03;5088811;28;20059;-41
2020/12/17 06:54:17;;;;;;;32.63;20.17;;;;;;;15.67;38.37;95255.56;5098234;28;20048;-54
2020/12/17 06:57:16;;;;;;;39.65;24.42;;;;;;;15.42;39.35;95252.38;5098202;28;20047;-50
2020/12/17 06:59:46;;;;;;;52.78;28.45;;;;;;;15.75;38.59;95262.78;5065711;28;20044;-41
2020/12/17 07:02:20;;;;;;;54.75;30.52;;;;;;;15.53;39.33;95265.31;5077731;28;20427;-41
2020/12/17 07:04:48;;;;;;;69.55;34.65;;;;;;;15.66;39.07;95269.84;5085199;28;20052;-41
2020/12/17 07:07:19;;;;;;;71.93;37.63;;;;;;;15.59;39.36;95266.81;5098029;28;20057;-41
2020/12/17 07:09:51;;;;;;;69.68;37.67;;;;;;;15.53;39.15;95270.59;5097653;28;20054;-42
2020/12/17 07:12:37;;;;;;;74.28;38.92;;;;;;;15.54;39.50;95274.78;5097607;28;20051;-41
2020/12/17 07:15:23;;;;;;;65.70;37.25;;;;;;;15.29;39.79;95268.16;5097850;28;20082;-41
2020/12/17 07:17:50;;;;;;;67.90;37.70;;;;;;;15.27;40.04;95265.81;5079744;28;20060;-41
2020/12/17 07:20:29;;;;;;;67.32;35.03;;;;;;;15.14;40.25;95269.25;5097366;28;20051;-41
2020/12/17 07:22:57;;;;;;;67.47;36.67;;;;;;;15.11;40.46;95264.56;5097710;28;20052;-41
2020/12/17 07:25:34;;;;;;;64.30;35.45;;;;;;;15.41;39.77;95269.25;5097690;28;20039;-49
2020/12/17 07:28:02;;;;;;;66.22;34.33;;;;;;;15.83;39.06;95269.97;5097475;28;20044;-42
2020/12/17 07:30:29;;;;;;;63.47;34.85;;;;;;;15.62;39.50;95268.88;5097473;28;20443;-57
2020/12/17 07:32:56;;;;;;;63.72;36.10;;;;;;;15.54;39.46;95272.94;5096778;28;20044;-42
2020/12/17 07:35:27;;;;;;;67.30;36.25;;;;;;;15.67;39.38;95266.13;5097355;28;20048;-41
2020/12/17 07:38:01;;;;;;;71.32;38.13;;;;;;;16.55;37.63;95277.03;5097226;28;20055;-46
2020/12/17 07:40:36;;;;;;;72.60;39.60;;;;;;;16.65;37.38;95267.03;5097376;28;20051;-40
2020/12/17 07:43:13;;;;;;;72.15;38.03;;;;;;;16.85;37.01;95278.94;5097118;28;20055;-41
2020/12/17 07:45:53;;;;;;;73.63;39.45;;;;;;;16.96;36.82;95284.75;5097251;28;20048;-41
2020/12/17 07:48:38;;;;;;;72.90;40.30;;;;;;;16.93;36.73;95282.72;5097006;28;20043;-41
2020/12/17 07:51:12;;;;;;;68.85;39.55;;;;;;;16.85;36.95;95283.44;5095060;28;20056;-41
2020/12/17 07:53:40;;;;;;;74.22;42.55;;;;;;;17.00;36.59;95285.72;5076879;28;20056;-41
2020/12/17 07:56:08;;;;;;;84.28;45.63;;;;;;;16.78;36.68;95283.88;5076903;28;20053;-42
2020/12/17 07:58:36;;;;;;;83.80;45.40;;;;;;;17.08;36.26;95282.31;5076870;28;20055;-42
2020/12/17 08:01:04;;;;;;;89.78;48.70;;;;;;;17.07;36.36;95283.41;5077078;28;20051;-48
2020/12/17 08:04:01;;;;;;;86.95;48.13;;;;;;;17.20;36.27;95292.34;5096042;28;20059;-47
2020/12/17 08:06:29;;;;;;;85.65;48.00;;;;;;;17.33;36.00;95298.59;5088786;28;20044;-43
2020/12/17 08:09:01;;;;;;;87.32;47.05;;;;;;;17.21;35.99;95294.66;5097414;28;20055;-41
2020/12/17 08:11:28;;;;;;;85.32;48.15;;;;;;;17.42;35.78;95299.38;5096419;28;20048;-41
2020/12/17 08:14:00;;;;;;;85.20;48.13;;;;;;;17.42;36.00;95299.38;5096673;28;20059;-41
2020/12/17 08:16:28;;;;;;;91.03;47.72;;;;;;;17.41;35.44;95297.81;5097045;28;20055;-42
2020/12/17 08:18:55;;;;;;;84.32;47.33;;;;;;;17.66;35.23;95306.91;5096554;28;20300;-42
2020/12/17 08:21:23;;;;;;;74.28;41.67;;;;;;;17.46;35.45;95300.34;5095982;28;20078;-42
2020/12/17 08:23:51;;;;;;;58.47;33.88;;;;;;;17.56;35.42;95300.06;5096828;28;20066;-42
2020/12/17 08:26:23;;;;;;;61.90;34.58;;;;;;;17.57;35.41;95309.53;5096850;28;20048;-42
2020/12/17 08:28:51;;;;;;;58.05;33.88;;;;;;;17.46;35.82;95303.00;5096547;28;20055;-42
2020/12/17 08:31:29;;;;;;;53.42;32.40;;;;;;;17.38;35.83;95295.78;5096062;28;20048;-42
2020/12/17 08:33:58;;;;;;;55.55;31.83;;;;;;;17.62;35.70;95301.47;5096332;28;20050;-41
2020/12/17 08:36:28;;;;;;;43.47;26.48;;;;;;;17.73;35.53;95300.13;5096479;28;20490;-41
2020/12/17 08:39:10;;;;;;;29.52;20.65;;;;;;;17.60;35.35;95297.56;5096413;28;20469;-41
2020/12/17 08:41:42;;;;;;;32.78;21.92;;;;;;;17.64;35.18;95298.50;5096180;28;20055;-42
2020/12/17 08:44:11;;;;;;;34.65;22.67;;;;;;;17.62;35.38;95300.69;5095358;28;20048;-41
2020/12/17 08:46:46;;;;;;;33.45;22.88;;;;;;;17.71;35.01;95296.25;5078370;28;20055;-41
2020/12/17 08:49:14;;;;;;;31.02;22.98;;;;;;;17.58;35.27;95300.53;5096126;28;20051;-42
2020/12/17 08:51:45;;;;;;;33.33;23.45;;;;;;;17.47;35.68;95299.25;5077669;28;20382;-42
2020/12/17 08:54:31;;;;;;;31.27;20.00;;;;;;;17.39;35.68;95298.13;5095872;28;20438;-42
2020/12/17 08:57:09;;;;;;;31.65;22.70;;;;;;;17.66;35.42;95304.28;5096047;28;20044;-42
2020/12/17 08:59:37;;;;;;;32.53;22.85;;;;;;;17.81;35.17;95283.50;5096195;28;20051;-41
2020/12/17 09:02:04;;;;;;;30.30;22.23;;;;;;;17.77;35.42;95282.56;5095650;28;20047;-58
2020/12/17 09:04:31;;;;;;;26.27;18.33;;;;;;;17.72;35.30;95279.28;5095522;28;20036;-42
2020/12/17 09:07:00;;;;;;;29.42;20.02;;;;;;;17.70;35.41;95284.88;5095864;28;20043;-43
2020/12/17 09:09:29;;;;;;;28.38;20.25;;;;;;;17.79;35.23;95275.09;5095879;28;20358;-57
2020/12/17 09:11:59;;;;;;;25.05;18.85;;;;;;;17.96;35.19;95273.56;5095394;28;20051;-42
2020/12/17 09:14:30;;;;;;;28.77;20.30;;;;;;;17.96;34.83;95276.22;5095742;28;20052;-44
2020/12/17 09:17:14;;;;;;;26.55;20.13;;;;;;;17.95;35.00;95274.63;5095616;28;20050;-41
2020/12/17 09:19:43;;;;;;;23.38;17.83;;;;;;;18.05;34.95;95276.97;5095512;28;20051;-41
2020/12/17 09:22:11;;;;;;;25.95;18.15;;;;;;;18.01;35.08;95270.75;5095341;28;20052;-41
2020/12/17 09:24:39;;;;;;;24.58;17.95;;;;;;;18.13;35.00;95270.91;5095818;28;20390;-41
2020/12/17 09:27:23;;;;;;;24.88;18.40;;;;;;;18.07;35.08;95270.28;5095532;28;20048;-42
2020/12/17 09:30:14;;;;;;;25.92;18.88;;;;;;;18.06;34.95;95267.97;5095555;28;20051;-41
2020/12/17 09:32:53;;;;;;;24.90;17.80;;;;;;;18.28;34.74;95267.81;5087683;28;20048;-41
2020/12/17 09:35:30;;;;;;;24.83;17.98;;;;;;;18.15;34.72;95266.09;5095488;28;20044;-41
2020/12/17 09:38:08;;;;;;;26.63;19.75;;;;;;;18.39;34.63;95269.03;5095548;28;20052;-41
2020/12/17 09:40:37;;;;;;;25.73;17.92;;;;;;;18.21;34.65;95270.13;5095458;28;20055;-41
2020/12/17 09:43:15;;;;;;;25.98;19.35;;;;;;;18.26;35.09;95264.69;5095080;28;20052;-42
2020/12/17 09:45:49;;;;;;;26.17;18.83;;;;;;;18.21;35.02;95264.81;5095407;28;20048;-41
2020/12/17 09:48:29;;;;;;;25.77;19.77;;;;;;;18.23;34.91;95267.97;5095304;28;20043;-43
2020/12/17 09:51:00;;;;;;;29.23;20.23;;;;;;;18.26;35.05;95267.34;5095136;28;20040;-41
2020/12/17 09:53:28;;;;;;;29.70;21.23;;;;;;;18.36;34.87;95267.00;5094934;28;20055;-41
2020/12/17 09:55:55;;;;;;;28.77;20.08;;;;;;;18.46;34.81;95265.91;5098523;28;20048;-60
2020/12/17 09:58:23;;;;;;;28.67;20.63;;;;;;;18.28;34.96;95273.09;5099522;28;20052;-42
2020/12/17 10:00:50;;;;;;;26.25;19.27;;;;;;;18.31;34.71;95272.47;5099387;28;20328;-41
2020/12/17 10:03:17;;;;;;;24.23;19.30;;;;;;;18.36;34.88;95267.00;5098866;28;20051;-41
2020/12/17 10:05:44;;;;;;;28.88;20.88;;;;;;;18.53;34.92;95260.16;5099457;28;20459;-41
2020/12/17 10:08:11;;;;;;;27.73;20.33;;;;;;;18.69;34.78;95261.22;5099393;28;20039;-54
2020/12/17 10:10:38;;;;;;;31.42;21.02;;;;;;;18.65;34.71;95257.66;5099212;28;20478;-42
2020/12/17 10:13:07;;;;;;;28.20;22.55;;;;;;;18.71;34.59;95257.16;5098616;28;20485;-45
2020/12/17 10:15:34;;;;;;;29.33;22.05;;;;;;;18.69;34.79;95245.31;5081277;28;20462;-42
2020/12/17 10:18:01;;;;;;;29.42;22.48;;;;;;;18.79;34.77;95253.72;5081209;28;20358;-41
2020/12/17 10:20:28;;;;;;;30.15;23.10;;;;;;;18.73;34.71;95248.88;5098666;28;20044;-41
2020/12/17 10:22:55;;;;;;;28.85;21.98;;;;;;;18.81;34.44;95249.97;5094462;28;20052;-42
2020/12/17 10:25:23;;;;;;;34.70;23.98;;;;;;;18.85;34.97;95250.91;5098944;28;20055;-42
2020/12/17 10:27:52;;;;;;;31.23;23.17;;;;;;;18.84;34.47;95250.13;5098928;28;20048;-41
2020/12/17 10:30:19;;;;;;;33.58;22.90;;;;;;;18.87;34.41;95249.50;5098580;28;20048;-42
2020/12/17 10:32:47;;;;;;;30.77;23.20;;;;;;;16.88;38.40;95254.56;5098254;28;20040;-42
2020/12/17 10:35:14;;;;;;;29.58;22.35;;;;;;;17.49;37.31;95249.50;5098864;28;20051;-41
2020/12/17 10:37:42;;;;;;;33.33;22.20;;;;;;;18.27;35.86;95242.44;5098656;28;20059;-42
2020/12/17 10:40:10;;;;;;;27.98;21.80;;;;;;;18.65;35.20;95241.75;5098616;28;20055;-58
2020/12/17 10:42:41;;;;;;;32.22;24.73;;;;;;;18.90;34.59;95243.56;5098202;28;20051;-41
2020/12/17 10:45:09;;;;;;;29.77;23.60;;;;;;;19.12;34.35;95231.16;5098637;28;20447;-42
2020/12/17 10:47:37;;;;;;;28.00;22.92;;;;;;;19.19;34.21;95234.09;5098228;28;20048;-42
2020/12/17 10:50:07;;;;;;;26.33;21.23;;;;;;;19.20;34.41;95232.97;5096260;28;20048;-42
2020/12/17 10:52:34;;;;;;;25.95;20.75;;;;;;;19.27;33.82;95225.31;5097223;28;20467;-41
2020/12/17 10:55:02;;;;;;;27.35;21.40;;;;;;;19.26;34.29;95226.44;5098341;28;20080;-41
2020/12/17 10:57:29;;;;;;;26.38;20.38;;;;;;;19.42;33.92;95232.72;5098360;28;20055;-42
2020/12/17 10:59:56;;;;;;;25.33;19.90;;;;;;;19.63;33.77;95227.47;5098263;28;20087;-41
2020/12/17 11:02:23;;;;;;;25.75;20.92;;;;;;;19.71;33.45;95229.28;5097755;28;20055;-41
2020/12/17 11:04:51;;;;;;;48.28;34.53;;;;;;;19.75;33.52;95229.41;5098267;28;20513;-41
2020/12/17 11:07:18;;;;;;;39.35;31.60;;;;;;;19.78;33.60;95221.63;5097149;28;20051;-41
2020/12/17 11:09:45;;;;;;;35.63;29.15;;;;;;;19.68;34.27;95220.09;5098015;28;20052;-41
2020/12/17 11:12:13;;;;;;;25.58;20.08;;;;;;;19.67;33.53;95223.84;5097647;28;20082;-42
2020/12/17 11:14:40;;;;;;;29.98;22.25;;;;;;;19.91;33.32;95217.91;5098266;28;20050;-42
2020/12/17 11:17:07;;;;;;;25.83;20.10;;;;;;;19.96;33.23;95214.28;5097885;28;20478;-42
2020/12/17 11:19:34;;;;;;;26.92;19.75;;;;;;;19.67;34.00;95215.91;5097577;28;20040;-41
2020/12/17 11:22:03;;;;;;;24.27;19.05;;;;;;;19.84;33.38;95220.31;5097557;28;20621;-41
2020/12/17 11:24:30;;;;;;;24.13;19.58;;;;;;;19.68;33.78;95214.78;5097847;28;20362;-41
2020/12/17 11:26:57;;;;;;;23.00;19.08;;;;;;;19.71;33.75;95208.84;5097667;28;20079;-42
2020/12/17 11:29:24;;;;;;;23.25;19.00;;;;;;;19.64;33.58;95213.88;5097651;28;20047;-41